Time;durP1;ratioP1;P1;durP2;ratioP2;P2;SDS_P1;SDS_P2;PMS_P1;PMS_P2;Temp;Humidity;BMP_temperature;BMP_pressure;BME280_temperature;BME280_humidity;BME280_pressure;Samples;Min_cycle;Max_cycle;Signal;HPM_P1;HPM_P2
2023/09/25 00:00:32;;;;;;;0.30;0.10;;;;;;;13.94;99.19;101213.66;4987743;28;20041;-83
2023/09/25 00:03:00;;;;;;;0.40;0.10;;;;;;;13.83;99.64;101212.06;4975263;28;20412;-84
2023/09/25 00:05:28;;;;;;;0.10;0.00;;;;;;;13.74;100.00;101215.56;4983197;28;20629;-84
2023/09/25 00:07:54;;;;;;;0.40;0.00;;;;;;;13.71;100.00;101209.81;4982868;28;20031;-84
2023/09/25 00:10:23;;;;;;;0.82;0.00;;;;;;;13.68;99.61;101204.88;4987690;28;20077;-84
2023/09/25 00:12:49;;;;;;;0.57;0.10;;;;;;;13.71;100.00;101202.78;4983251;28;20034;-83
2023/09/25 00:15:15;;;;;;;0.10;0.00;;;;;;;13.61;100.00;101226.41;4980907;28;20110;-84
2023/09/25 00:17:42;;;;;;;0.10;0.00;;;;;;;13.60;100.00;101216.09;4978424;28;20133;-84
2023/09/25 00:20:12;;;;;;;1.98;0.10;;;;;;;13.58;96.58;101213.63;4995195;28;20062;-84
2023/09/25 00:22:39;;;;;;;0.75;0.08;;;;;;;13.75;98.03;101205.94;4980927;28;20407;-83
2023/09/25 00:25:05;;;;;;;0.75;0.00;;;;;;;13.75;98.47;101208.53;4985566;28;20522;-84
2023/09/25 00:27:34;;;;;;;0.20;0.00;;;;;;;13.73;94.31;101205.25;4982482;28;20058;-83
2023/09/25 00:30:00;;;;;;;0.10;0.00;;;;;;;13.84;94.65;101212.91;4986833;28;20037;-83
2023/09/25 00:32:27;;;;;;;1.15;0.80;;;;;;;13.82;95.08;101209.59;4976031;28;20069;-84
2023/09/25 00:34:53;;;;;;;0.20;0.03;;;;;;;13.69;91.05;101207.38;4984236;28;20034;-84
2023/09/25 00:37:19;;;;;;;0.10;0.00;;;;;;;13.68;91.07;101191.78;4980660;28;20040;-83
2023/09/25 00:39:44;;;;;;;0.30;0.05;;;;;;;13.75;90.72;101188.41;4987316;28;20402;-84
2023/09/25 00:42:10;;;;;;;0.65;0.00;;;;;;;13.82;92.03;101188.66;4979663;28;20121;-84
2023/09/25 00:44:36;;;;;;;0.35;0.28;;;;;;;13.81;92.97;101181.75;4986760;28;20120;-84
2023/09/25 00:47:02;;;;;;;0.20;0.00;;;;;;;13.75;94.69;101179.72;4987522;28;20030;-84
2023/09/25 00:49:28;;;;;;;0.30;0.05;;;;;;;13.65;96.01;101176.38;4988818;28;20030;-84
2023/09/25 00:51:55;;;;;;;0.38;0.00;;;;;;;13.51;97.38;101172.44;4990666;28;20053;-84
2023/09/25 00:54:21;;;;;;;0.38;0.00;;;;;;;13.43;94.58;101167.94;4989808;28;20118;-83
2023/09/25 00:56:48;;;;;;;0.35;0.05;;;;;;;13.57;96.16;101183.16;4988100;28;20046;-83
2023/09/25 00:59:15;;;;;;;0.00;0.00;;;;;;;13.61;96.62;101178.47;4988979;28;20038;-84
2023/09/25 01:01:40;;;;;;;1.55;0.10;;;;;;;13.49;96.16;101177.84;4989876;28;20531;-83
2023/09/25 01:04:06;;;;;;;0.80;0.10;;;;;;;13.71;89.34;101170.53;4985229;28;20130;-84
2023/09/25 01:06:31;;;;;;;0.00;0.00;;;;;;;14.75;83.26;101158.47;4988703;28;20141;-84
2023/09/25 01:08:57;;;;;;;0.40;0.00;;;;;;;15.64;75.59;101177.28;4988482;28;20549;-84
2023/09/25 01:11:22;;;;;;;0.10;0.00;;;;;;;15.58;77.27;101163.00;4988307;28;20388;-83
2023/09/25 01:13:48;;;;;;;0.20;0.00;;;;;;;15.62;77.84;101171.34;4990007;28;20038;-84
2023/09/25 01:16:13;;;;;;;0.10;0.00;;;;;;;15.35;84.40;101169.78;4989135;28;20479;-84
2023/09/25 01:18:39;;;;;;;0.13;0.00;;;;;;;14.94;87.49;101164.34;4988044;28;20122;-84
2023/09/25 01:21:04;;;;;;;0.17;0.00;;;;;;;14.60;88.73;101179.22;4988274;28;20061;-83
2023/09/25 01:23:30;;;;;;;0.60;0.00;;;;;;;14.56;88.02;101170.00;4987459;28;20037;-83
2023/09/25 01:25:55;;;;;;;0.13;0.00;;;;;;;14.70;84.72;101169.44;4988183;28;20037;-84
2023/09/25 01:28:21;;;;;;;0.10;0.00;;;;;;;14.84;86.08;101158.38;4990585;28;20454;-84
2023/09/25 01:30:47;;;;;;;0.10;0.00;;;;;;;14.74;89.02;101152.41;4990994;28;20034;-84
2023/09/25 01:33:12;;;;;;;0.35;0.00;;;;;;;14.48;83.34;101151.59;4991604;28;20061;-84
2023/09/25 01:35:37;;;;;;;2.83;0.20;;;;;;;14.47;88.11;101155.19;4989136;28;20030;-84
2023/09/25 01:38:04;;;;;;;0.45;0.00;;;;;;;14.42;90.23;101160.91;4990943;28;20387;-84
2023/09/25 01:40:31;;;;;;;0.10;0.00;;;;;;;14.24;90.45;101155.63;4991697;28;20372;-84
2023/09/25 01:42:57;;;;;;;0.20;0.00;;;;;;;14.10;91.37;101161.44;4989112;28;20034;-84
2023/09/25 01:45:23;;;;;;;0.10;0.00;;;;;;;14.07;92.81;101164.34;4990353;28;20431;-83
2023/09/25 01:47:51;;;;;;;0.20;0.00;;;;;;;13.98;92.29;101173.09;4986746;28;20038;-84
2023/09/25 01:50:21;;;;;;;1.17;0.03;;;;;;;13.84;90.29;101171.00;4992397;28;20373;-84
2023/09/25 01:52:49;;;;;;;0.88;0.00;;;;;;;13.87;92.48;101171.53;4986250;28;20035;-84
2023/09/25 01:55:15;;;;;;;2.92;0.10;;;;;;;13.81;93.36;101161.63;4989434;28;20023;-83
2023/09/25 01:57:40;;;;;;;0.22;0.00;;;;;;;13.73;93.67;101163.34;4986388;28;20043;-84
2023/09/25 02:00:09;;;;;;;2.13;0.10;;;;;;;13.63;93.10;101152.97;4991269;28;20042;-83
2023/09/25 02:02:34;;;;;;;0.15;0.00;;;;;;;13.54;89.96;101162.50;4989489;28;20037;-84
2023/09/25 02:05:00;;;;;;;0.60;0.00;;;;;;;13.58;91.15;101163.88;5002232;28;20034;-84
2023/09/25 02:07:25;;;;;;;0.20;0.10;;;;;;;13.61;93.84;101152.28;4986651;28;20088;-84
2023/09/25 02:09:51;;;;;;;0.10;0.00;;;;;;;13.42;89.73;101161.06;4985972;28;20104;-84
2023/09/25 02:12:16;;;;;;;0.17;0.00;;;;;;;13.49;93.21;101150.84;4989172;28;20034;-84
2023/09/25 02:14:42;;;;;;;0.10;0.00;;;;;;;13.43;94.29;101147.00;4984060;28;20035;-84
2023/09/25 02:17:07;;;;;;;0.77;0.00;;;;;;;13.34;95.85;101126.94;4990662;28;20526;-83
2023/09/25 02:19:33;;;;;;;0.20;0.00;;;;;;;13.21;92.99;101131.72;5001087;28;20132;-84
2023/09/25 02:21:58;;;;;;;0.25;0.00;;;;;;;13.16;91.13;101139.16;4984214;28;20041;-84
2023/09/25 02:24:24;;;;;;;0.10;0.00;;;;;;;13.23;92.16;101135.00;4983834;28;20570;-84
2023/09/25 02:26:49;;;;;;;0.10;0.00;;;;;;;13.24;93.42;101126.16;4984728;28;20542;-83
2023/09/25 02:29:15;;;;;;;2.40;0.00;;;;;;;13.07;92.72;101129.53;4986734;28;20033;-84
2023/09/25 02:31:40;;;;;;;0.05;0.00;;;;;;;12.95;93.72;101114.03;4980843;28;20031;-84
2023/09/25 02:34:06;;;;;;;0.50;0.00;;;;;;;12.92;93.86;101116.91;4984991;28;20087;-84
2023/09/25 02:36:33;;;;;;;0.10;0.00;;;;;;;12.87;93.53;101107.84;4981494;28;20038;-84
2023/09/25 02:38:59;;;;;;;0.22;0.00;;;;;;;12.93;92.80;101102.06;4999302;28;20045;-84
2023/09/25 02:41:25;;;;;;;0.20;0.00;;;;;;;13.09;92.95;101101.44;4984677;28;20031;-84
2023/09/25 02:43:50;;;;;;;2.92;0.03;;;;;;;13.28;87.89;101091.69;4982857;28;20400;-84
2023/09/25 02:46:16;;;;;;;0.25;0.00;;;;;;;13.28;88.02;101081.25;4985843;28;20038;-84
2023/09/25 02:48:41;;;;;;;0.25;0.00;;;;;;;13.34;91.53;101082.44;4982612;28;20058;-83
2023/09/25 02:51:06;;;;;;;0.10;0.00;;;;;;;13.29;92.93;101079.44;4983726;28;20031;-84
2023/09/25 02:53:32;;;;;;;0.52;0.00;;;;;;;13.16;91.11;101097.31;4979901;28;20041;-83
2023/09/25 02:55:57;;;;;;;0.28;0.00;;;;;;;13.37;91.84;101090.00;4980921;28;20042;-84
2023/09/25 02:58:24;;;;;;;0.30;0.10;;;;;;;13.36;92.02;101098.81;4978972;28;20034;-83
2023/09/25 03:00:49;;;;;;;0.10;0.00;;;;;;;13.41;93.25;101111.47;4986890;28;20423;-84
2023/09/25 03:03:15;;;;;;;0.10;0.00;;;;;;;13.46;92.60;101107.44;4983241;28;20049;-83
2023/09/25 03:05:41;;;;;;;0.75;0.05;;;;;;;13.48;92.98;101108.13;4979676;28;20096;-83
2023/09/25 03:08:06;;;;;;;0.17;0.00;;;;;;;13.41;93.85;101112.28;4983256;28;20035;-84
2023/09/25 03:10:32;;;;;;;0.20;0.10;;;;;;;13.34;94.65;101107.78;4984342;28;20030;-84
2023/09/25 03:12:57;;;;;;;0.20;0.00;;;;;;;13.29;95.83;101103.81;4978430;28;20041;-84
2023/09/25 03:15:24;;;;;;;0.77;0.00;;;;;;;13.22;96.93;101115.03;4983080;28;20042;-84
2023/09/25 03:17:49;;;;;;;0.30;0.10;;;;;;;13.15;96.97;101119.19;4982101;28;20122;-84
2023/09/25 03:20:15;;;;;;;0.38;0.00;;;;;;;13.10;97.13;101114.38;4978999;28;20178;-84
2023/09/25 03:22:45;;;;;;;0.15;0.00;;;;;;;13.06;97.09;101112.19;4982616;28;20085;-84
2023/09/25 03:25:12;;;;;;;0.40;0.00;;;;;;;13.05;96.93;101119.22;4978423;28;20564;-84
2023/09/25 03:27:38;;;;;;;0.50;0.00;;;;;;;13.00;95.72;101113.59;4982627;28;20591;-83
2023/09/25 03:30:05;;;;;;;0.22;0.00;;;;;;;12.99;97.23;101117.19;4986917;28;20041;-84
2023/09/25 03:32:31;;;;;;;0.30;0.00;;;;;;;12.94;97.37;101117.59;4977481;28;20444;-83
2023/09/25 03:34:57;;;;;;;0.00;0.00;;;;;;;12.93;98.30;101118.56;4975996;28;20062;-84
2023/09/25 03:37:22;;;;;;;2.67;0.03;;;;;;;12.91;99.52;101117.06;4986926;28;20030;-84
2023/09/25 03:39:47;;;;;;;0.20;0.00;;;;;;;12.77;99.28;101118.34;4974945;28;20046;-84
2023/09/25 03:42:13;;;;;;;0.15;0.00;;;;;;;12.66;100.00;101102.84;4976252;28;20145;-84
2023/09/25 03:44:38;;;;;;;1.30;0.10;;;;;;;12.58;100.00;101098.34;4979640;28;20046;-83
2023/09/25 03:47:04;;;;;;;0.15;0.00;;;;;;;12.48;100.00;101101.94;4986520;28;20026;-84
2023/09/25 03:49:29;;;;;;;0.85;0.10;;;;;;;12.40;100.00;101105.25;4974882;28;20034;-84
2023/09/25 03:51:55;;;;;;;0.85;0.00;;;;;;;12.34;98.42;101094.53;4991343;28;20034;-84
2023/09/25 03:54:20;;;;;;;0.38;0.00;;;;;;;12.50;100.00;101105.22;4988124;28;20131;-84
2023/09/25 03:56:46;;;;;;;0.43;0.10;;;;;;;12.43;98.14;101098.91;4990249;28;20124;-84
2023/09/25 03:59:11;;;;;;;0.20;0.10;;;;;;;12.48;97.58;101094.09;4990703;28;20476;-84
2023/09/25 04:01:37;;;;;;;0.20;0.00;;;;;;;12.67;95.12;101091.44;4987807;28;20088;-84
2023/09/25 04:04:03;;;;;;;0.10;0.00;;;;;;;12.79;95.93;101074.56;4989675;28;20444;-84
2023/09/25 04:06:28;;;;;;;0.50;0.03;;;;;;;12.80;97.60;101086.69;4985818;28;20030;-84
2023/09/25 04:08:53;;;;;;;0.52;0.10;;;;;;;12.76;98.26;101074.84;4987305;28;20040;-86
2023/09/25 04:11:19;;;;;;;0.98;0.10;;;;;;;12.65;95.82;101064.59;4986303;28;20100;-84
2023/09/25 04:13:44;;;;;;;0.60;0.10;;;;;;;12.72;95.32;101073.53;4983373;28;20038;-84
2023/09/25 04:16:14;;;;;;;0.30;0.10;;;;;;;12.90;90.55;101071.78;4985732;28;20096;-84
2023/09/25 04:18:42;;;;;;;0.60;0.08;;;;;;;13.37;89.98;101063.00;4982988;28;20062;-84
2023/09/25 04:21:11;;;;;;;0.00;0.00;;;;;;;13.49;89.73;101075.75;4983845;28;20048;-84
2023/09/25 04:23:36;;;;;;;0.63;0.00;;;;;;;13.55;92.37;101093.47;4980544;28;20038;-84
2023/09/25 04:26:03;;;;;;;0.20;0.05;;;;;;;13.39;94.27;101095.91;4986206;28;20034;-84
2023/09/25 04:28:29;;;;;;;0.32;0.00;;;;;;;13.22;95.78;101101.97;4980312;28;20053;-84
2023/09/25 04:30:57;;;;;;;0.47;0.08;;;;;;;13.10;96.91;101105.69;4986342;28;20034;-84
2023/09/25 04:33:26;;;;;;;0.73;0.00;;;;;;;12.96;97.45;101112.22;4977209;28;20030;-84
2023/09/25 04:35:58;;;;;;;0.00;0.00;;;;;;;12.87;99.21;101103.44;4977505;28;20034;-84
2023/09/25 04:38:25;;;;;;;0.30;0.00;;;;;;;12.82;99.14;101107.47;4987080;28;20037;-84
2023/09/25 04:40:51;;;;;;;0.50;0.10;;;;;;;12.76;99.64;101103.63;4980589;28;20092;-84
2023/09/25 04:43:17;;;;;;;0.20;0.08;;;;;;;12.71;100.00;101102.44;4983969;28;20514;-84
2023/09/25 04:45:43;;;;;;;0.25;0.00;;;;;;;12.57;96.90;101098.47;4987303;28;20510;-83
2023/09/25 04:48:09;;;;;;;1.90;0.08;;;;;;;12.59;97.89;101113.06;4983887;28;20031;-83
2023/09/25 04:50:36;;;;;;;0.88;0.10;;;;;;;12.69;98.80;101109.59;4982924;28;20388;-84
2023/09/25 04:53:05;;;;;;;0.82;0.10;;;;;;;12.70;100.00;101112.06;4982092;28;20041;-84
2023/09/25 04:55:31;;;;;;;1.20;0.10;;;;;;;12.62;100.00;101115.38;4986167;28;20046;-84
2023/09/25 04:57:56;;;;;;;0.10;0.00;;;;;;;12.47;97.70;101122.00;4990715;28;20170;-84
2023/09/25 05:00:26;;;;;;;0.20;0.10;;;;;;;12.55;99.88;101121.31;4989424;28;20026;-83
2023/09/25 05:02:54;;;;;;;0.73;0.08;;;;;;;12.54;100.00;101117.88;4990431;28;20034;-84
2023/09/25 05:05:20;;;;;;;0.30;0.00;;;;;;;12.49;100.00;101124.50;4991121;28;20038;-84
2023/09/25 05:07:47;;;;;;;0.40;0.10;;;;;;;12.44;100.00;101132.75;4991036;28;20049;-84
2023/09/25 05:10:15;;;;;;;0.70;0.10;;;;;;;12.40;100.00;101130.56;4991646;28;20026;-84
2023/09/25 05:12:41;;;;;;;0.10;0.00;;;;;;;12.39;100.00;101132.34;4989107;28;20042;-84
2023/09/25 05:15:07;;;;;;;0.25;0.10;;;;;;;12.41;100.00;101140.03;4991876;28;20044;-84
2023/09/25 05:17:37;;;;;;;0.60;0.00;;;;;;;12.35;100.00;101144.03;4988112;28;20049;-84
2023/09/25 05:20:11;;;;;;;1.27;0.10;;;;;;;12.24;100.00;101147.66;4987949;28;20060;-84
2023/09/25 05:22:48;;;;;;;0.20;0.03;;;;;;;12.19;100.00;101144.63;4984660;28;20460;-84
2023/09/25 05:25:14;;;;;;;1.05;0.10;;;;;;;12.32;100.00;101146.94;4982853;28;20383;-84
2023/09/25 05:27:45;;;;;;;0.30;0.08;;;;;;;12.32;100.00;101143.50;4984784;28;20057;-84
2023/09/25 05:30:12;;;;;;;0.43;0.05;;;;;;;12.29;100.00;101141.97;4991915;28;20038;-84
2023/09/25 05:32:43;;;;;;;0.20;0.10;;;;;;;12.33;100.00;101147.75;4987009;28;20038;-85
2023/09/25 05:35:09;;;;;;;0.28;0.10;;;;;;;12.35;100.00;101148.44;4984478;28;20041;-84
2023/09/25 05:37:36;;;;;;;0.28;0.08;;;;;;;12.40;100.00;101148.84;4984470;28;20033;-84
2023/09/25 05:40:05;;;;;;;0.60;0.10;;;;;;;12.46;100.00;101149.13;4988626;28;20034;-85
2023/09/25 05:42:33;;;;;;;0.32;0.10;;;;;;;12.49;100.00;101150.63;4983885;28;20116;-85
2023/09/25 05:44:58;;;;;;;1.17;0.10;;;;;;;12.53;100.00;101154.63;4983945;28;20119;-85
2023/09/25 05:47:24;;;;;;;0.70;0.10;;;;;;;12.60;100.00;101158.31;4989001;28;20026;-85
2023/09/25 05:49:49;;;;;;;1.05;0.10;;;;;;;12.65;100.00;101155.28;4985663;28;20027;-85
2023/09/25 05:52:15;;;;;;;0.75;0.20;;;;;;;12.60;100.00;101163.53;4983436;28;20043;-85
2023/09/25 05:54:40;;;;;;;0.65;0.20;;;;;;;12.62;100.00;101159.81;4989819;28;20038;-85
2023/09/25 05:57:06;;;;;;;4.22;0.28;;;;;;;12.62;100.00;101159.00;4993785;28;20038;-86
2023/09/25 05:59:34;;;;;;;1.27;0.20;;;;;;;12.71;100.00;101166.00;4992217;28;20066;-85
2023/09/25 06:02:03;;;;;;;0.95;0.10;;;;;;;12.88;100.00;101169.66;4992887;28;20030;-85
2023/09/25 06:04:29;;;;;;;0.52;0.10;;;;;;;12.98;100.00;101170.44;4989585;28;20026;-85
2023/09/25 06:06:55;;;;;;;1.33;0.20;;;;;;;13.06;100.00;101175.81;4990160;28;20038;-85
2023/09/25 06:09:21;;;;;;;0.90;0.20;;;;;;;13.12;100.00;101174.41;4989859;28;20026;-85
2023/09/25 06:11:48;;;;;;;0.50;0.10;;;;;;;13.25;100.00;101185.38;4987948;28;20049;-85
2023/09/25 06:14:13;;;;;;;0.15;0.00;;;;;;;13.41;100.00;101185.59;4989361;28;20402;-84
2023/09/25 06:16:39;;;;;;;1.30;0.10;;;;;;;13.53;100.00;101191.47;4985484;28;20030;-86
2023/09/25 06:19:05;;;;;;;1.02;0.10;;;;;;;13.66;100.00;101191.94;4990194;28;20502;-84
2023/09/25 06:21:34;;;;;;;0.35;0.10;;;;;;;13.77;100.00;101191.72;4987652;28;20090;-85
2023/09/25 06:24:00;;;;;;;0.30;0.00;;;;;;;13.82;100.00;101188.66;4988905;28;20041;-85
2023/09/25 06:26:27;;;;;;;0.30;0.00;;;;;;;13.89;97.71;101187.09;4989426;28;20043;-85
2023/09/25 06:28:53;;;;;;;3.13;0.10;;;;;;;14.16;96.33;101189.66;4986804;28;20061;-85
2023/09/25 06:31:19;;;;;;;0.50;0.10;;;;;;;14.35;97.49;101172.09;4987191;28;20031;-85
2023/09/25 06:33:45;;;;;;;1.25;0.20;;;;;;;14.39;95.99;101187.38;4981926;28;20031;-84
2023/09/25 06:36:11;;;;;;;1.23;0.13;;;;;;;14.35;96.44;101174.72;4989215;28;20041;-86
2023/09/25 06:38:36;;;;;;;0.77;0.10;;;;;;;14.45;97.87;101172.88;4979791;28;20034;-85
2023/09/25 06:41:02;;;;;;;1.33;0.10;;;;;;;14.52;98.71;101171.28;4983297;28;20383;-85
2023/09/25 06:43:27;;;;;;;1.23;0.10;;;;;;;14.57;99.04;101158.56;4979308;28;20058;-85
2023/09/25 06:45:53;;;;;;;1.08;0.10;;;;;;;14.64;97.23;101150.91;4979028;28;20500;-85
2023/09/25 06:48:18;;;;;;;0.63;0.10;;;;;;;14.78;95.09;101140.63;4981921;28;20038;-85
2023/09/25 06:50:44;;;;;;;1.10;0.00;;;;;;;15.06;92.72;101138.66;4991849;28;20022;-85
2023/09/25 06:53:09;;;;;;;0.17;0.00;;;;;;;15.60;86.48;101134.75;4978969;28;20122;-85
2023/09/25 06:55:36;;;;;;;0.45;0.00;;;;;;;16.40;81.48;101121.81;4990353;28;20038;-84
2023/09/25 06:58:03;;;;;;;0.13;0.00;;;;;;;17.08;73.83;101125.75;4978638;28;20174;-84
2023/09/25 07:00:29;;;;;;;0.47;0.10;;;;;;;18.03;69.75;101118.44;4987383;28;20117;-84
2023/09/25 07:02:54;;;;;;;1.45;0.08;;;;;;;18.48;68.64;101128.09;4986196;28;20037;-84
2023/09/25 07:05:20;;;;;;;0.55;0.00;;;;;;;18.70;67.00;101124.63;4989947;28;20128;-83
2023/09/25 07:07:46;;;;;;;0.20;0.03;;;;;;;18.86;63.53;101124.44;4990457;28;20034;-83
2023/09/25 07:10:12;;;;;;;0.00;0.00;;;;;;;19.01;66.66;101129.69;4989711;28;20400;-84
2023/09/25 07:12:38;;;;;;;0.28;0.00;;;;;;;18.94;71.27;101144.63;4991346;28;20053;-84
2023/09/25 07:15:05;;;;;;;0.45;0.10;;;;;;;18.62;76.09;101158.19;4991580;28;20038;-84
2023/09/25 07:17:30;;;;;;;0.47;0.10;;;;;;;18.17;77.90;101168.63;4988501;28;20065;-84
2023/09/25 07:19:56;;;;;;;0.40;0.10;;;;;;;17.64;81.34;101177.34;4992263;28;20062;-83
2023/09/25 07:22:24;;;;;;;0.65;0.10;;;;;;;17.36;84.18;101190.16;4989835;28;20562;-84
2023/09/25 07:24:50;;;;;;;0.88;0.10;;;;;;;17.21;85.25;101182.16;4989493;28;20069;-83
2023/09/25 07:27:16;;;;;;;0.55;0.10;;;;;;;17.23;85.84;101184.63;4990720;28;20046;-84
2023/09/25 07:29:43;;;;;;;0.90;0.20;;;;;;;17.23;85.45;101193.34;4987323;28;20027;-84
2023/09/25 07:32:09;;;;;;;0.55;0.10;;;;;;;17.29;85.33;101193.66;4989243;28;20391;-84
2023/09/25 07:34:34;;;;;;;0.77;0.10;;;;;;;17.30;85.92;101190.84;4986177;28;20030;-84
2023/09/25 07:37:00;;;;;;;0.52;0.10;;;;;;;17.32;86.14;101190.69;4991751;28;20049;-84
2023/09/25 07:39:26;;;;;;;2.92;0.10;;;;;;;17.31;86.28;101202.22;4986083;28;20102;-84
2023/09/25 07:41:52;;;;;;;0.30;0.05;;;;;;;17.39;86.20;101202.19;4993856;28;20041;-85
2023/09/25 07:44:18;;;;;;;0.30;0.03;;;;;;;17.50;85.83;101202.59;4987875;28;20083;-85
2023/09/25 07:46:44;;;;;;;0.22;0.03;;;;;;;17.61;86.14;101197.94;4991613;28;20117;-84
2023/09/25 07:49:11;;;;;;;0.68;0.10;;;;;;;17.78;85.89;101199.53;4991437;28;20022;-85
2023/09/25 07:51:37;;;;;;;0.40;0.10;;;;;;;17.91;85.47;101199.78;4990937;28;20049;-85
2023/09/25 07:54:03;;;;;;;0.57;0.00;;;;;;;18.02;84.75;101191.47;4988218;28;20034;-84
2023/09/25 07:56:36;;;;;;;;;;;;;;;18.04;74.24;101186.84;5107853;27;20388;-68
2023/09/25 07:59:02;;;;;;;;;;;;;;;17.93;72.60;101176.72;5099421;28;20375;-68
2023/09/25 08:01:31;;;;;;;0.40;0.10;;;;;;;17.81;82.16;101193.91;5095134;28;20413;-69
2023/09/25 08:03:58;;;;;;;1.42;0.20;;;;;;;17.82;76.89;101179.75;5094565;28;20109;-69
2023/09/25 08:06:27;;;;;;;0.43;0.15;;;;;;;17.97;78.75;101177.16;5092330;28;20054;-68
2023/09/25 08:08:59;;;;;;;0.82;0.10;;;;;;;18.12;77.71;101181.50;5098374;28;20105;-68
2023/09/25 08:11:28;;;;;;;1.02;0.10;;;;;;;18.17;80.88;101173.88;5082287;28;20036;-69
2023/09/25 08:13:54;;;;;;;0.10;0.00;;;;;;;18.23;80.91;101183.72;5088349;28;20034;-69
2023/09/25 08:16:22;;;;;;;0.30;0.10;;;;;;;18.29;82.34;101194.56;5093715;28;20118;-69
2023/09/25 08:18:48;;;;;;;1.88;0.10;;;;;;;18.22;84.09;101191.81;5084168;28;20047;-69
2023/09/25 08:21:14;;;;;;;1.30;0.10;;;;;;;18.16;84.78;101188.06;5088902;28;20474;-68
2023/09/25 08:23:39;;;;;;;0.25;0.10;;;;;;;18.07;85.50;101196.22;5081284;28;20032;-68
2023/09/25 08:26:05;;;;;;;0.55;0.10;;;;;;;18.15;85.60;101207.53;5083856;28;20448;-73
2023/09/25 08:28:31;;;;;;;0.63;0.10;;;;;;;18.18;85.48;101204.53;5079713;28;20568;-71
2023/09/25 08:30:57;;;;;;;0.50;0.10;;;;;;;18.04;85.58;101194.75;5083677;28;20027;-70
2023/09/25 08:33:22;;;;;;;1.20;0.00;;;;;;;17.85;85.78;101206.59;5082679;28;20025;-67
2023/09/25 08:35:48;;;;;;;0.70;0.10;;;;;;;17.75;86.16;101210.44;5082010;28;20510;-68
2023/09/25 08:38:14;;;;;;;0.73;0.10;;;;;;;17.69;86.02;101200.56;5080721;28;20047;-68
2023/09/25 08:40:47;;;;;;;0.73;0.05;;;;;;;17.68;85.65;101193.66;5075390;28;20521;-68
2023/09/25 08:43:13;;;;;;;0.20;0.00;;;;;;;17.69;86.24;101193.50;5082633;28;20025;-68
2023/09/25 08:45:41;;;;;;;0.10;0.00;;;;;;;17.74;86.02;101191.16;5077389;28;20037;-67
2023/09/25 08:48:10;;;;;;;0.32;0.10;;;;;;;17.87;86.69;101180.88;5077353;28;20029;-67
2023/09/25 08:50:37;;;;;;;1.13;0.10;;;;;;;18.05;86.77;101179.75;5072879;28;20119;-68
2023/09/25 08:53:03;;;;;;;0.25;0.08;;;;;;;18.16;85.39;101176.69;5075861;28;20455;-67
2023/09/25 08:55:29;;;;;;;0.88;0.10;;;;;;;18.32;84.92;101162.56;5076412;28;20591;-67
2023/09/25 08:57:55;;;;;;;0.95;0.10;;;;;;;18.46;84.17;101161.75;5077340;28;20040;-67
2023/09/25 09:00:24;;;;;;;0.55;0.10;;;;;;;18.51;83.90;101157.59;5077010;28;20028;-68
2023/09/25 09:02:49;;;;;;;0.80;0.10;;;;;;;18.55;83.76;101165.97;5073252;28;20128;-68
2023/09/25 09:05:15;;;;;;;0.50;0.20;;;;;;;18.62;84.16;101166.91;5075448;28;20178;-67
2023/09/25 09:08:09;;;;;;;0.73;0.10;;;;;;;18.70;80.54;101166.84;5068662;28;20028;-67
2023/09/25 09:10:36;;;;;;;1.17;0.10;;;;;;;18.72;82.95;101175.41;5057734;28;20144;-68
2023/09/25 09:13:07;;;;;;;0.30;0.00;;;;;;;18.86;82.16;101174.59;5061445;28;20064;-67
2023/09/25 09:15:33;;;;;;;0.10;0.00;;;;;;;18.97;82.19;101169.84;5058874;28;20032;-68
2023/09/25 09:17:58;;;;;;;0.20;0.05;;;;;;;18.93;82.54;101165.94;5065049;28;20082;-68
2023/09/25 09:20:38;;;;;;;0.47;0.05;;;;;;;18.86;81.75;101169.31;5063102;28;20117;-67
2023/09/25 09:23:06;;;;;;;0.15;0.03;;;;;;;18.85;82.50;101169.50;5055191;28;20032;-67
2023/09/25 09:25:31;;;;;;;0.13;0.00;;;;;;;18.92;81.87;101174.84;5065644;28;20043;-67
2023/09/25 09:28:00;;;;;;;1.38;0.00;;;;;;;18.94;81.99;101164.94;5079045;28;20127;-67
2023/09/25 09:30:26;;;;;;;0.17;0.08;;;;;;;18.97;81.46;101167.22;5065458;28;20153;-68
2023/09/25 09:32:52;;;;;;;0.80;0.10;;;;;;;18.94;82.45;101164.94;5069569;28;20112;-67
2023/09/25 09:35:24;;;;;;;2.05;0.63;;;;;;;18.92;82.24;101166.94;5070935;28;20032;-68
2023/09/25 09:37:58;;;;;;;0.22;0.08;;;;;;;19.10;80.46;101172.69;5068975;28;20115;-67
2023/09/25 09:40:25;;;;;;;0.35;0.10;;;;;;;19.22;81.62;101174.69;5068592;28;20082;-68
2023/09/25 09:42:52;;;;;;;0.20;0.10;;;;;;;19.20;81.30;101165.28;5066870;28;20074;-68
2023/09/25 09:45:19;;;;;;;0.77;0.10;;;;;;;19.16;81.58;101164.84;5068181;28;20036;-67
2023/09/25 09:47:48;;;;;;;0.52;0.00;;;;;;;19.26;81.00;101164.56;5068691;28;20032;-68
2023/09/25 09:50:22;;;;;;;0.43;0.00;;;;;;;19.29;81.06;101172.13;5065346;28;20025;-68
2023/09/25 09:52:48;;;;;;;0.43;0.10;;;;;;;19.32;81.35;101174.41;5066292;28;20079;-68
2023/09/25 09:55:15;;;;;;;0.30;0.00;;;;;;;19.39;80.05;101175.28;5064829;28;20045;-68
2023/09/25 09:57:41;;;;;;;0.17;0.10;;;;;;;19.63;80.59;101176.00;5064906;28;20036;-68
2023/09/25 10:00:07;;;;;;;0.45;0.00;;;;;;;19.74;80.43;101170.22;5068956;28;20030;-68
2023/09/25 10:02:34;;;;;;;2.03;0.03;;;;;;;19.64;80.60;101181.09;5064070;28;20040;-68
2023/09/25 10:05:00;;;;;;;1.00;0.10;;;;;;;19.60;80.25;101176.38;5064183;28;20479;-68
2023/09/25 10:07:27;;;;;;;0.20;0.10;;;;;;;19.69;80.68;101170.78;5064266;28;20043;-68
2023/09/25 10:10:04;;;;;;;0.15;0.10;;;;;;;19.72;81.10;101174.88;5067095;28;20036;-68
2023/09/25 10:12:49;;;;;;;1.65;0.00;;;;;;;19.69;80.43;101168.13;5060623;28;20048;-68
2023/09/25 10:15:22;;;;;;;0.45;0.10;;;;;;;19.74;78.19;101171.03;5064826;28;20119;-68
2023/09/25 10:17:48;;;;;;;1.85;0.10;;;;;;;19.79;77.89;101171.31;5057076;28;20085;-68
2023/09/25 10:20:40;;;;;;;0.47;0.08;;;;;;;19.87;75.56;101167.69;5060143;28;20399;-69
2023/09/25 10:23:05;;;;;;;0.70;0.00;;;;;;;19.92;79.32;101173.25;5062643;28;20028;-68
2023/09/25 10:25:52;;;;;;;0.30;0.10;;;;;;;19.90;76.82;101164.69;5062069;28;20032;-68
2023/09/25 10:29:18;;;;;;;0.20;0.05;;;;;;;19.87;76.86;101168.50;5066471;28;20089;-69
2023/09/25 10:31:47;;;;;;;0.20;0.05;;;;;;;19.97;80.48;101157.63;5052681;28;20049;-68
2023/09/25 10:34:13;;;;;;;0.28;0.03;;;;;;;20.05;80.75;101154.84;5068389;28;20035;-68
2023/09/25 10:36:41;;;;;;;0.50;0.05;;;;;;;20.08;81.38;101158.94;5064648;28;20045;-68
2023/09/25 10:39:08;;;;;;;0.22;0.05;;;;;;;20.15;81.32;101160.66;5064824;28;20093;-69
2023/09/25 10:41:34;;;;;;;0.35;0.00;;;;;;;20.36;79.70;101161.63;5068680;28;20035;-68
2023/09/25 10:44:00;;;;;;;1.35;0.00;;;;;;;20.39;79.62;101156.78;5065046;28;20024;-68
2023/09/25 10:46:25;;;;;;;0.63;0.00;;;;;;;20.46;78.61;101156.84;5062580;28;20055;-68
2023/09/25 10:48:53;;;;;;;0.40;0.10;;;;;;;20.58;77.58;101154.50;5061596;28;20032;-68
2023/09/25 10:51:20;;;;;;;0.20;0.00;;;;;;;20.57;77.40;101148.38;5068766;28;20032;-68
2023/09/25 10:53:46;;;;;;;0.10;0.00;;;;;;;20.53;78.31;101133.91;5069290;28;20033;-68
2023/09/25 10:56:11;;;;;;;0.28;0.00;;;;;;;20.53;77.27;101136.53;5072858;28;20106;-68
2023/09/25 10:58:37;;;;;;;0.20;0.03;;;;;;;20.74;77.43;101133.84;5068936;28;20031;-67
2023/09/25 11:01:04;;;;;;;0.55;0.05;;;;;;;20.79;76.28;101136.72;5065408;28;20032;-68
2023/09/25 11:03:31;;;;;;;0.10;0.00;;;;;;;21.04;73.97;101128.28;5068179;28;20024;-68
2023/09/25 11:05:58;;;;;;;1.02;0.10;;;;;;;21.28;68.41;101130.44;5080018;28;20424;-67
2023/09/25 11:08:25;;;;;;;1.45;0.10;;;;;;;21.58;67.29;101124.81;5060829;28;20484;-68
2023/09/25 11:10:51;;;;;;;2.28;0.10;;;;;;;21.67;65.33;101136.88;5067991;28;20475;-67
2023/09/25 11:13:17;;;;;;;0.25;0.00;;;;;;;21.80;69.48;101120.97;5064135;28;20051;-68
2023/09/25 11:15:44;;;;;;;0.57;0.10;;;;;;;21.55;69.98;101117.25;5066136;28;20021;-68
2023/09/25 11:18:10;;;;;;;0.93;0.10;;;;;;;21.81;69.34;101120.75;5058005;28;20112;-68
2023/09/25 11:20:38;;;;;;;0.22;0.00;;;;;;;21.98;71.07;101118.53;5060656;28;20415;-69
2023/09/25 11:23:10;;;;;;;0.57;0.00;;;;;;;22.01;62.86;101120.81;5069594;28;20023;-68